Time;durP1;ratioP1;P1;durP2;ratioP2;P2;SDS_P1;SDS_P2;PMS_P1;PMS_P2;Temp;Humidity;BMP_temperature;BMP_pressure;BME280_temperature;BME280_humidity;BME280_pressure;Samples;Min_cycle;Max_cycle;Signal;HPM_P1;HPM_P2
2022/05/06 00:03:27;;;;;;;11.70;6.82;;;11.80;99.90;;;;;;6737752;88;20245;-77
2022/05/06 00:13:28;;;;;;;14.82;7.60;;;11.40;99.90;;;;;;6725438;88;20332;-78
2022/05/06 00:23:29;;;;;;;15.35;8.05;;;11.40;99.90;;;;;;6675416;88;20270;-78
2022/05/06 00:33:30;;;;;;;14.45;7.72;;;11.40;99.90;;;;;;6655971;88;20206;-78
2022/05/06 00:43:31;;;;;;;11.45;7.85;;;11.20;99.90;;;;;;6719821;88;20581;-78
2022/05/06 00:53:31;;;;;;;11.50;7.50;;;11.20;99.90;;;;;;6705214;88;20208;-77
2022/05/06 01:03:32;;;;;;;12.20;7.93;;;11.10;99.90;;;;;;6688127;88;20413;-78
2022/05/06 01:13:43;;;;;;;12.10;7.65;;;10.90;99.90;;;;;;6663783;88;20184;-78
2022/05/06 01:23:43;;;;;;;13.45;8.52;;;10.70;99.90;;;;;;6703562;88;20174;-77
2022/05/06 01:33:45;;;;;;;12.63;8.25;;;10.60;99.90;;;;;;6693374;88;20238;-78
2022/05/06 01:44:05;;;;;;;15.25;8.07;;;10.90;99.90;;;;;;6676670;88;20199;-78
2022/05/06 01:54:07;;;;;;;15.27;8.60;;;10.70;99.90;;;;;;6710136;88;20309;-78
2022/05/06 02:14:28;;;;;;;18.87;10.20;;;10.40;99.90;;;;;;6703044;88;20685;-78
2022/05/06 02:24:28;;;;;;;18.20;10.70;;;10.10;99.90;;;;;;6703451;88;20200;-78
2022/05/06 02:34:29;;;;;;;17.90;10.63;;;10.00;99.90;;;;;;6703132;88;20201;-77
2022/05/06 02:44:29;;;;;;;18.70;10.70;;;9.90;99.90;;;;;;6702826;88;20217;-77
2022/05/06 02:54:30;;;;;;;19.33;10.77;;;9.90;99.90;;;;;;6703154;88;20209;-78
2022/05/06 03:04:31;;;;;;;17.40;10.45;;;10.10;99.90;;;;;;6703042;88;20395;-78
2022/05/06 03:14:32;;;;;;;20.00;11.30;;;9.90;99.90;;;;;;6703349;88;20207;-78
2022/05/06 03:24:33;;;;;;;17.87;11.45;;;9.70;99.90;;;;;;6722639;88;20264;-77
2022/05/06 03:34:33;;;;;;;19.62;11.32;;;9.70;99.90;;;;;;6719697;88;20314;-77
2022/05/06 03:44:33;;;;;;;18.30;11.68;;;9.60;99.90;;;;;;6719055;88;20230;-78
2022/05/06 03:54:34;;;;;;;18.30;10.95;;;9.40;99.90;;;;;;6719386;88;20208;-78
2022/05/06 04:04:35;;;;;;;19.48;10.82;;;9.30;99.90;;;;;;6737757;88;20666;-77
2022/05/06 04:14:35;;;;;;;18.58;11.05;;;9.30;99.90;;;;;;6739389;88;20229;-77
2022/05/06 04:24:36;;;;;;;21.98;11.55;;;9.40;99.90;;;;;;6745854;88;20211;-77
2022/05/06 04:34:36;;;;;;;22.37;12.90;;;9.40;99.90;;;;;;6734752;88;20236;-77
2022/05/06 04:44:37;;;;;;;23.35;13.88;;;9.30;99.90;;;;;;6717805;88;20197;-77
2022/05/06 04:54:37;;;;;;;20.88;11.95;;;9.10;99.90;;;;;;6717426;88;20220;-78
2022/05/06 05:04:39;;;;;;;22.33;13.07;;;9.20;99.90;;;;;;6720697;88;20216;-77
2022/05/06 05:14:41;;;;;;;25.27;13.25;;;9.20;99.90;;;;;;6695970;88;20194;-77
2022/05/06 05:24:42;;;;;;;22.02;13.88;;;9.50;99.90;;;;;;6650766;89;20187;-78
2022/05/06 05:34:43;;;;;;;22.48;13.13;;;9.50;99.90;;;;;;6683271;88;20661;-79
2022/05/06 05:55:02;;;;;;;27.08;15.82;;;9.90;99.90;;;;;;6721675;88;20912;-79
2022/05/06 06:05:03;;;;;;;24.27;15.05;;;10.50;99.90;;;;;;6721798;88;20220;-79
2022/05/06 06:15:04;;;;;;;33.53;19.20;;;11.00;99.90;;;;;;6718101;88;20622;-79
2022/05/06 06:25:06;;;;;;;27.98;17.80;;;11.50;99.90;;;;;;6719996;88;20228;-76
2022/05/06 06:35:07;;;;;;;33.83;19.65;;;12.00;99.90;;;;;;6714894;88;20654;-77
2022/05/06 06:45:07;;;;;;;36.08;22.73;;;12.80;99.90;;;;;;6716629;88;20209;-78
2022/05/06 06:55:08;;;;;;;33.60;20.55;;;13.30;99.90;;;;;;6715569;88;20292;-78
2022/05/06 07:05:09;;;;;;;31.80;20.33;;;13.80;99.90;;;;;;6716962;88;20264;-78
2022/05/06 07:15:10;;;;;;;38.97;24.75;;;14.90;99.90;;;;;;6719720;88;20256;-78
2022/05/06 07:25:10;;;;;;;38.53;23.65;;;15.90;99.90;;;;;;6718143;88;20194;-79
2022/05/06 07:35:11;;;;;;;44.78;25.88;;;15.90;99.90;;;;;;6717433;88;20197;-78
2022/05/06 07:45:12;;;;;;;44.13;26.42;;;16.60;99.90;;;;;;6704977;88;20190;-78
2022/05/06 07:55:15;;;;;;;35.20;24.27;;;16.50;99.90;;;;;;6716942;88;20247;-78
2022/05/06 08:05:15;;;;;;;38.95;24.95;;;16.90;99.90;;;;;;6716793;88;20186;-78
2022/05/06 08:15:16;;;;;;;33.20;21.58;;;18.00;99.90;;;;;;6721084;88;20649;-79
2022/05/06 08:25:17;;;;;;;30.87;19.47;;;19.20;99.90;;;;;;6721241;88;20299;-78
2022/05/06 08:35:19;;;;;;;30.08;18.00;;;20.10;99.90;;;;;;6712881;88;20511;-79
2022/05/06 08:55:38;;;;;;;23.60;15.05;;;21.50;97.00;;;;;;6718718;88;20248;-76
2022/05/06 09:05:53;;;;;;;22.77;13.43;;;22.10;95.20;;;;;;6716234;88;20988;-76
2022/05/06 09:26:33;;;;;;;11.70;7.12;;;22.70;92.40;;;;;;6718728;88;20181;-76
2022/05/06 09:36:34;;;;;;;9.48;4.22;;;23.60;86.00;;;;;;6718705;88;20207;-78
2022/05/06 09:46:36;;;;;;;12.35;6.53;;;24.20;79.70;;;;;;6717380;88;20208;-78
2022/05/06 09:56:37;;;;;;;11.50;5.87;;;25.10;78.20;;;;;;6717452;88;20214;-78
2022/05/06 10:06:37;;;;;;;13.55;5.95;;;25.50;74.20;;;;;;6715526;88;20225;-79
2022/05/06 10:16:38;;;;;;;10.60;5.75;;;25.10;72.50;;;;;;6717303;88;20733;-78
2022/05/06 10:26:51;;;;;;;10.52;5.93;;;25.30;71.00;;;;;;6718476;88;20346;-79
2022/05/06 10:36:54;;;;;;;11.65;5.87;;;26.10;68.90;;;;;;6718719;88;20195;-79
2022/05/06 10:46:57;;;;;;;11.10;5.72;;;26.20;70.00;;;;;;6718996;88;20671;-80
2022/05/06 10:57:05;;;;;;;9.45;6.10;;;27.50;66.30;;;;;;6715091;88;20227;-79
2022/05/06 11:07:13;;;;;;;9.30;5.60;;;27.00;67.10;;;;;;6720648;77;20185;-78
2022/05/06 11:17:18;;;;;;;7.12;4.20;;;27.40;66.60;;;;;;6707896;88;20178;-76
2022/05/06 11:27:20;;;;;;;9.32;5.07;;;28.20;64.50;;;;;;6709245;88;20201;-76
2022/05/06 11:37:25;;;;;;;8.67;5.00;;;28.00;61.70;;;;;;6704288;88;20329;-76
2022/05/06 11:47:28;;;;;;;8.38;5.00;;;28.50;60.90;;;;;;6709261;88;20195;-78
2022/05/06 11:57:29;;;;;;;8.55;4.78;;;29.20;60.50;;;;;;6710580;88;20753;-78
2022/05/06 12:07:47;;;;;;;11.68;4.97;;;28.60;59.80;;;;;;6705958;88;20216;-77
2022/05/06 12:17:59;;;;;;;8.32;4.82;;;29.20;59.10;;;;;;6715649;88;20207;-77
2022/05/06 12:28:10;;;;;;;6.30;4.00;;;28.90;59.10;;;;;;6709685;88;20398;-78
2022/05/06 12:38:10;;;;;;;9.02;4.22;;;28.60;58.20;;;;;;6710853;88;20348;-78
2022/05/06 12:58:31;;;;;;;6.18;4.10;;;29.30;58.20;;;;;;6709565;88;20611;-77
2022/05/06 13:08:31;;;;;;;7.87;4.20;;;29.60;57.00;;;;;;6709287;88;20232;-78
2022/05/06 13:18:32;;;;;;;9.05;4.37;;;28.80;57.10;;;;;;6698819;88;20175;-77
2022/05/06 13:28:32;;;;;;;6.50;4.28;;;29.40;55.90;;;;;;6707516;88;20688;-77
2022/05/06 13:38:33;;;;;;;6.47;3.55;;;28.50;56.40;;;;;;6713855;88;20250;-78
2022/05/06 13:48:36;;;;;;;9.88;3.95;;;28.10;56.60;;;;;;6715178;88;20212;-77
2022/05/06 14:08:57;;;;;;;8.20;4.15;;;27.10;56.20;;;;;;6709753;88;21014;-77
2022/05/06 14:18:58;;;;;;;6.87;4.47;;;25.80;58.60;;;;;;6710414;88;20345;-78
2022/05/06 14:28:58;;;;;;;6.37;4.00;;;25.90;58.30;;;;;;6713018;88;20181;-77
2022/05/06 14:38:59;;;;;;;9.53;3.97;;;27.20;58.30;;;;;;6705194;88;20187;-78
2022/05/06 14:48:59;;;;;;;8.95;4.32;;;27.50;57.20;;;;;;6693425;88;20756;-78
2022/05/06 14:59:00;;;;;;;7.72;5.07;;;28.20;56.70;;;;;;6708729;88;20700;-77
2022/05/06 15:09:00;;;;;;;14.38;6.78;;;28.10;56.70;;;;;;6703684;88;20205;-77
2022/05/06 15:29:20;;;;;;;7.55;3.90;;;26.80;58.40;;;;;;6705015;88;20179;-77
2022/05/06 15:39:21;;;;;;;8.03;5.20;;;26.60;58.20;;;;;;6708406;88;20699;-77
2022/05/06 15:49:22;;;;;;;9.02;5.40;;;26.90;58.20;;;;;;6704151;88;20755;-76
2022/05/06 15:59:22;;;;;;;10.13;6.57;;;26.40;59.00;;;;;;6699918;88;20206;-76
2022/05/06 16:09:25;;;;;;;10.82;6.60;;;25.90;59.30;;;;;;6702568;88;20202;-76
2022/05/06 16:19:25;;;;;;;11.77;7.03;;;25.50;59.90;;;;;;6702356;88;20246;-78
2022/05/06 16:29:26;;;;;;;12.73;9.63;;;25.40;60.40;;;;;;6708986;88;20705;-77
2022/05/06 16:39:26;;;;;;;14.10;9.25;;;24.00;62.70;;;;;;6708035;88;20194;-77
2022/05/06 16:49:27;;;;;;;12.52;8.70;;;23.20;64.50;;;;;;6702374;88;20603;-79
2022/05/06 16:59:27;;;;;;;17.20;9.18;;;23.50;64.30;;;;;;6702785;88;20191;-79
2022/05/06 17:09:28;;;;;;;13.47;8.47;;;23.50;64.80;;;;;;6704556;88;20201;-77
2022/05/06 17:19:31;;;;;;;14.38;9.50;;;24.00;65.30;;;;;;6700922;88;20198;-77
2022/05/06 17:29:31;;;;;;;12.55;8.80;;;24.60;64.30;;;;;;6706365;88;20191;-77
2022/05/06 17:39:32;;;;;;;14.93;9.45;;;25.00;63.90;;;;;;6699857;88;20306;-77
2022/05/06 17:49:34;;;;;;;16.87;9.20;;;24.10;64.70;;;;;;6702122;88;20793;-79
2022/05/06 17:59:35;;;;;;;13.85;9.00;;;23.60;64.80;;;;;;6704760;88;20222;-79
2022/05/06 18:09:36;;;;;;;14.70;9.02;;;23.00;66.20;;;;;;6697557;88;20271;-78
2022/05/06 18:19:36;;;;;;;13.05;8.73;;;21.50;68.60;;;;;;6703892;88;20198;-78
2022/05/06 18:29:39;;;;;;;20.75;9.27;;;21.20;69.80;;;;;;6706317;88;21699;-77
2022/05/06 18:39:40;;;;;;;16.30;8.43;;;20.70;73.10;;;;;;6701441;88;20306;-77
2022/05/06 18:49:41;;;;;;;15.85;8.32;;;20.10;73.50;;;;;;6697917;88;20190;-78
2022/05/06 18:59:42;;;;;;;15.65;8.20;;;19.60;74.80;;;;;;6690012;88;20342;-77
2022/05/06 19:09:42;;;;;;;12.85;7.93;;;19.40;75.60;;;;;;6692450;88;20640;-77
2022/05/06 19:19:43;;;;;;;14.35;7.68;;;19.10;76.40;;;;;;6704019;88;20203;-78
2022/05/06 19:29:45;;;;;;;11.82;8.02;;;18.80;79.00;;;;;;6698086;88;20222;-77
2022/05/06 19:39:46;;;;;;;13.35;8.68;;;18.50;80.20;;;;;;6698659;88;20194;-78
2022/05/06 19:49:46;;;;;;;13.18;7.80;;;18.10;81.90;;;;;;6699459;88;20261;-78
2022/05/06 19:59:47;;;;;;;15.75;8.48;;;17.70;84.40;;;;;;6698090;88;20187;-77
2022/05/06 20:09:48;;;;;;;15.13;7.90;;;17.50;86.80;;;;;;6698208;88;20191;-77
2022/05/06 20:19:49;;;;;;;14.82;8.90;;;17.30;88.10;;;;;;6699256;88;20213;-77
2022/05/06 20:29:50;;;;;;;11.43;7.57;;;17.10;90.10;;;;;;6700107;88;20614;-76
2022/05/06 20:39:50;;;;;;;13.55;7.50;;;17.10;91.30;;;;;;6698138;88;20274;-77
2022/05/06 20:49:51;;;;;;;11.70;8.50;;;17.00;91.90;;;;;;6697359;88;20256;-77
2022/05/06 20:59:51;;;;;;;13.35;8.38;;;16.80;94.00;;;;;;6694852;88;20508;-77
2022/05/06 21:20:14;;;;;;;18.45;11.60;;;16.60;96.70;;;;;;6714624;88;20199;-78
2022/05/06 21:30:16;;;;;;;16.00;9.95;;;16.20;98.70;;;;;;6719198;88;20283;-78
2022/05/06 21:40:17;;;;;;;14.95;9.48;;;15.90;99.90;;;;;;6700987;88;20727;-79
2022/05/06 21:50:18;;;;;;;13.23;8.68;;;15.90;99.90;;;;;;6702524;88;20190;-78
2022/05/06 22:00:35;;;;;;;14.60;8.77;;;15.50;99.90;;;;;;6703650;88;20666;-79
2022/05/06 22:10:35;;;;;;;14.32;9.30;;;15.50;99.90;;;;;;6705549;88;20538;-79
2022/05/06 22:20:36;;;;;;;13.65;9.13;;;15.00;99.90;;;;;;6704904;88;20225;-78
2022/05/06 22:30:37;;;;;;;14.73;9.07;;;14.80;99.90;;;;;;6700771;88;21623;-79
2022/05/06 22:40:37;;;;;;;14.13;9.75;;;14.60;99.90;;;;;;6703041;88;20645;-79
2022/05/06 22:50:38;;;;;;;17.23;10.32;;;14.50;99.90;;;;;;6702183;88;20198;-78
2022/05/06 23:10:42;;;;;;;15.05;9.95;;;14.00;99.90;;;;;;6716742;88;20324;-80
2022/05/06 23:20:42;;;;;;;16.93;10.27;;;14.10;99.90;;;;;;6714178;88;20233;-80
2022/05/06 23:30:43;;;;;;;14.77;10.25;;;13.70;99.90;;;;;;6712147;88;20504;-81
2022/05/06 23:40:44;;;;;;;13.10;9.75;;;13.40;99.90;;;;;;6712941;88;20322;-80
2022/05/06 23:50:45;;;;;;;14.30;10.25;;;13.40;99.90;;;;;;6713308;88;20215;-81
